createdAt,value
2018-12-15T00:00:03.122Z,76
2018-12-15T00:00:15.635Z,63
2018-12-15T00:00:28.000Z,44
2018-12-15T00:00:40.342Z,68
2018-12-15T00:00:52.687Z,83
2018-12-15T00:01:05.042Z,83
2018-12-15T00:01:17.405Z,83
2018-12-15T00:01:30.956Z,29
2018-12-15T00:01:43.302Z,53
2018-12-15T00:01:55.652Z,53
2018-12-15T00:02:07.996Z,53
2018-12-15T00:02:20.351Z,53
2018-12-15T00:02:32.897Z,53
2018-12-15T00:02:45.308Z,53
2018-12-15T00:02:57.640Z,53
2018-12-15T00:03:09.973Z,53
2018-12-15T00:03:22.315Z,53
2018-12-15T00:03:34.671Z,53
2018-12-15T00:03:47.017Z,53
2018-12-15T00:03:59.375Z,53
2018-12-15T00:04:11.718Z,53
2018-12-15T00:04:24.066Z,53
2018-12-15T00:04:36.470Z,46
2018-12-15T00:04:48.807Z,46
2018-12-15T00:05:01.151Z,46
2018-12-15T00:05:13.565Z,46
2018-12-15T00:05:25.912Z,67
2018-12-15T00:05:38.258Z,60
2018-12-15T00:05:50.767Z,28
2018-12-15T00:06:03.190Z,32
2018-12-15T00:06:15.539Z,36
2018-12-15T00:06:27.928Z,48
2018-12-15T00:06:40.280Z,41
2018-12-15T00:06:52.615Z,46
2018-12-15T00:07:04.959Z,100
2018-12-15T00:07:17.295Z,80
2018-12-15T00:07:29.708Z,78
2018-12-15T00:07:42.059Z,58
2018-12-15T00:07:54.392Z,80
2018-12-15T00:08:06.747Z,61
2018-12-15T00:08:19.090Z,59
2018-12-15T00:08:31.431Z,65
2018-12-15T00:08:43.783Z,72
2018-12-15T00:08:56.212Z,91
2018-12-15T00:09:08.541Z,124
2018-12-15T00:09:20.878Z,103
2018-12-15T00:09:33.609Z,35
2018-12-15T00:09:45.969Z,59
2018-12-15T00:09:58.335Z,32
2018-12-15T00:10:10.681Z,32
2018-12-15T00:10:23.030Z,72
2018-12-15T00:10:35.375Z,59
2018-12-15T00:10:47.711Z,77
2018-12-15T00:11:00.070Z,69
2018-12-15T00:11:12.525Z,62
2018-12-15T00:11:24.857Z,51
2018-12-15T00:11:37.245Z,46
2018-12-15T00:11:49.620Z,34
2018-12-15T00:12:01.981Z,43
2018-12-15T00:12:14.321Z,78
2018-12-15T00:12:26.685Z,28
2018-12-15T00:12:39.118Z,61
2018-12-15T00:12:51.491Z,43
2018-12-15T00:13:03.837Z,52
2018-12-15T00:13:16.195Z,80
2018-12-15T00:13:28.540Z,57
2018-12-15T00:13:40.883Z,71
2018-12-15T00:13:53.239Z,47
2018-12-15T00:14:05.592Z,47
2018-12-15T00:14:17.946Z,47
2018-12-15T00:14:30.857Z,47
2018-12-15T00:14:43.193Z,47
2018-12-15T00:14:55.555Z,47
2018-12-15T00:15:07.889Z,47
2018-12-15T00:15:20.230Z,47
2018-12-15T00:15:32.582Z,47
2018-12-15T00:15:44.994Z,47
2018-12-15T00:15:57.330Z,47
2018-12-15T00:16:09.685Z,47
2018-12-15T00:16:22.016Z,47
2018-12-15T00:16:34.356Z,47
2018-12-15T00:16:47.006Z,47
2018-12-15T00:17:05.524Z,47
2018-12-15T00:17:18.002Z,47
2018-12-15T00:17:30.345Z,47
2018-12-15T00:17:42.685Z,47
2018-12-15T00:17:55.094Z,47
2018-12-15T00:18:07.576Z,47
2018-12-15T00:18:19.916Z,47
2018-12-15T00:18:32.302Z,37
2018-12-15T00:18:44.697Z,45
2018-12-15T00:18:57.060Z,78
2018-12-15T00:19:09.402Z,55
2018-12-15T00:19:21.746Z,47
2018-12-15T00:19:34.085Z,47
2018-12-15T00:19:46.430Z,47
2018-12-15T00:19:58.764Z,47
2018-12-15T00:20:11.106Z,47
2018-12-15T00:20:23.449Z,47
2018-12-15T00:20:35.800Z,47
2018-12-15T00:20:48.150Z,47
2018-12-15T00:21:00.518Z,47
2018-12-15T00:21:12.915Z,74
2018-12-15T00:21:25.260Z,74
2018-12-15T00:21:37.677Z,112
2018-12-15T00:21:50.039Z,88
2018-12-15T00:22:02.389Z,88
2018-12-15T00:22:14.744Z,83
2018-12-15T00:22:27.100Z,83
2018-12-15T00:22:39.425Z,65
2018-12-15T00:22:51.765Z,71
2018-12-15T00:23:04.104Z,56
2018-12-15T00:23:16.477Z,53
2018-12-15T00:23:28.842Z,52
2018-12-15T00:23:41.199Z,58
2018-12-15T00:23:53.551Z,82
2018-12-15T00:24:05.880Z,64
2018-12-15T00:24:18.230Z,66
2018-12-15T00:24:30.588Z,66
2018-12-15T00:24:42.923Z,66
2018-12-15T00:24:55.266Z,66
2018-12-15T00:25:07.740Z,66
2018-12-15T00:25:20.076Z,66
2018-12-15T00:25:32.621Z,66
2018-12-15T00:25:45.042Z,61
2018-12-15T00:25:57.395Z,76
2018-12-15T00:26:09.745Z,70
2018-12-15T00:26:22.077Z,53
2018-12-15T00:26:34.905Z,53
2018-12-15T00:26:47.250Z,44
2018-12-15T00:26:59.598Z,35
2018-12-15T00:27:11.937Z,59
2018-12-15T00:27:24.321Z,53
2018-12-15T00:27:36.669Z,63
2018-12-15T00:27:49.001Z,34
2018-12-15T00:28:01.354Z,61
2018-12-15T00:28:13.724Z,63
2018-12-15T00:28:26.091Z,63
2018-12-15T00:28:38.560Z,51
2018-12-15T00:28:51.031Z,29
2018-12-15T00:29:03.428Z,30
2018-12-15T00:29:15.782Z,47
2018-12-15T00:29:28.126Z,47
2018-12-15T00:29:40.498Z,63
2018-12-15T00:29:52.851Z,63
2018-12-15T00:30:05.277Z,63
2018-12-15T00:30:18.271Z,63
2018-12-15T00:30:30.643Z,65
2018-12-15T00:30:42.990Z,65
2018-12-15T00:30:55.540Z,65
2018-12-15T00:31:07.961Z,65
2018-12-15T00:31:20.377Z,65
2018-12-15T00:31:32.722Z,65
2018-12-15T00:31:45.076Z,65
2018-12-15T00:31:57.413Z,65
2018-12-15T00:32:09.760Z,65
2018-12-15T00:32:22.443Z,65
2018-12-15T00:32:34.990Z,65
2018-12-15T00:32:47.410Z,65
2018-12-15T00:32:59.753Z,65
2018-12-15T00:33:12.095Z,65
2018-12-15T00:33:24.441Z,34
2018-12-15T00:33:36.941Z,33
2018-12-15T00:33:49.279Z,42
2018-12-15T00:34:01.634Z,46
2018-12-15T00:34:13.994Z,38
2018-12-15T00:34:26.330Z,38
2018-12-15T00:34:38.701Z,84
2018-12-15T00:34:51.261Z,178
2018-12-15T00:35:03.632Z,163
2018-12-15T00:35:16.017Z,161
2018-12-15T00:35:28.369Z,152
2018-12-15T00:35:40.717Z,147
2018-12-15T00:35:53.057Z,147
2018-12-15T00:36:05.494Z,147
2018-12-15T00:36:17.898Z,147
2018-12-15T00:36:30.429Z,147
2018-12-15T00:36:42.753Z,147
2018-12-15T00:36:55.085Z,147
2018-12-15T00:37:07.500Z,147
2018-12-15T00:37:19.834Z,147
2018-12-15T00:37:32.194Z,147
2018-12-15T00:37:44.770Z,147
2018-12-15T00:37:57.287Z,147
2018-12-15T00:38:09.703Z,147
2018-12-15T00:38:22.107Z,147
2018-12-15T00:38:34.446Z,147
2018-12-15T00:38:46.795Z,147
2018-12-15T00:38:59.163Z,140
2018-12-15T00:39:11.590Z,55
2018-12-15T00:39:24.057Z,55
2018-12-15T00:39:36.405Z,63
2018-12-15T00:39:48.811Z,58
2018-12-15T00:40:01.463Z,58
2018-12-15T00:40:13.820Z,58
2018-12-15T00:40:26.169Z,58
2018-12-15T00:40:38.711Z,57
2018-12-15T00:40:51.053Z,40
2018-12-15T00:41:03.597Z,76
2018-12-15T00:41:16.024Z,73
2018-12-15T00:41:28.365Z,82
2018-12-15T00:41:40.688Z,83
2018-12-15T00:41:53.021Z,88
2018-12-15T00:42:05.363Z,88
2018-12-15T00:42:17.740Z,91
2018-12-15T00:42:30.096Z,63
2018-12-15T00:42:42.593Z,67
2018-12-15T00:42:54.983Z,90
2018-12-15T00:43:07.342Z,90
2018-12-15T00:43:19.690Z,90
2018-12-15T00:43:32.048Z,90
2018-12-15T00:43:44.419Z,90
2018-12-15T00:43:56.759Z,34
2018-12-15T00:44:09.119Z,61
2018-12-15T00:44:21.475Z,63
2018-12-15T00:44:33.820Z,63
2018-12-15T00:44:46.178Z,63
2018-12-15T00:44:58.512Z,63
2018-12-15T00:45:10.897Z,63
2018-12-15T00:45:23.306Z,63
2018-12-15T00:45:35.636Z,63
2018-12-15T00:45:48.003Z,63
2018-12-15T00:46:00.349Z,63
2018-12-15T00:46:12.885Z,53
2018-12-15T00:46:25.219Z,34
2018-12-15T00:46:37.566Z,35
2018-12-15T00:46:49.931Z,44
2018-12-15T00:47:02.286Z,76
2018-12-15T00:47:21.742Z,83
2018-12-15T00:47:34.097Z,83
2018-12-15T00:47:46.516Z,83
2018-12-15T00:47:58.852Z,83
2018-12-15T00:48:11.200Z,83
2018-12-15T00:48:23.535Z,51
2018-12-15T00:48:35.884Z,52
2018-12-15T00:48:48.238Z,57
2018-12-15T00:49:00.605Z,64
2018-12-15T00:49:12.949Z,64
2018-12-15T00:49:25.400Z,64
2018-12-15T00:49:37.769Z,69
2018-12-15T00:49:50.119Z,69
2018-12-15T00:50:02.530Z,69
2018-12-15T00:50:14.902Z,69
2018-12-15T00:50:27.283Z,69
2018-12-15T00:50:39.625Z,69
2018-12-15T00:50:51.980Z,69
2018-12-15T00:51:04.315Z,9
2018-12-15T00:51:16.677Z,9
2018-12-15T00:51:29.084Z,45
2018-12-15T00:51:41.425Z,34
2018-12-15T00:51:53.757Z,42
2018-12-15T00:52:06.230Z,44
2018-12-15T00:52:18.578Z,44
2018-12-15T00:52:30.926Z,44
2018-12-15T00:52:43.259Z,44
2018-12-15T00:52:55.608Z,45
2018-12-15T00:53:07.970Z,48
2018-12-15T00:53:20.303Z,102
2018-12-15T00:53:32.699Z,115
2018-12-15T00:53:45.037Z,88
2018-12-15T00:53:57.402Z,88
2018-12-15T00:54:09.740Z,88
2018-12-15T00:54:22.090Z,69
2018-12-15T00:54:34.424Z,69
2018-12-15T00:54:46.792Z,69
2018-12-15T00:54:59.290Z,69
2018-12-15T00:55:11.790Z,69
2018-12-15T00:55:24.206Z,69
2018-12-15T00:55:36.563Z,51
2018-12-15T00:55:48.924Z,46
2018-12-15T00:56:01.276Z,56
2018-12-15T00:56:13.696Z,35
2018-12-15T00:56:26.028Z,44
2018-12-15T00:56:38.375Z,56
2018-12-15T00:56:50.997Z,76
2018-12-15T00:57:03.329Z,106
2018-12-15T00:57:15.736Z,109
2018-12-15T00:57:28.060Z,119
2018-12-15T00:57:40.395Z,101
2018-12-15T00:57:52.726Z,101
2018-12-15T00:58:05.062Z,57
2018-12-15T00:58:18.858Z,66
2018-12-15T00:58:31.224Z,46
2018-12-15T00:58:43.612Z,92
2018-12-15T00:58:56.078Z,94
2018-12-15T00:59:08.426Z,90
2018-12-15T00:59:20.781Z,76
2018-12-15T00:59:33.147Z,71
2018-12-15T00:59:45.580Z,74
2018-12-15T00:59:57.925Z,53
2018-12-15T01:00:10.308Z,55
2018-12-15T01:00:22.698Z,55
2018-12-15T01:00:35.080Z,55
2018-12-15T01:00:47.430Z,55
2018-12-15T01:00:59.788Z,55
2018-12-15T01:01:12.135Z,86
2018-12-15T01:01:24.480Z,86
2018-12-15T01:01:36.837Z,86
2018-12-15T01:01:49.219Z,86
2018-12-15T01:02:01.594Z,86
2018-12-15T01:02:13.935Z,86
2018-12-15T01:02:26.509Z,86
2018-12-15T01:02:39.048Z,86
2018-12-15T01:02:51.384Z,72
2018-12-15T01:03:03.771Z,55
2018-12-15T01:03:16.111Z,55
2018-12-15T01:03:28.450Z,55
2018-12-15T01:03:40.804Z,54
2018-12-15T01:03:53.153Z,53
2018-12-15T01:04:05.523Z,27
2018-12-15T01:04:17.881Z,31
2018-12-15T01:04:30.227Z,31
2018-12-15T01:04:42.573Z,65
2018-12-15T01:04:54.939Z,55
2018-12-15T01:05:07.295Z,46
2018-12-15T01:05:19.636Z,46
2018-12-15T01:05:32.002Z,58
2018-12-15T01:05:44.346Z,73
2018-12-15T01:05:56.691Z,78
2018-12-15T01:06:09.028Z,65
2018-12-15T01:06:21.470Z,40
2018-12-15T01:06:33.814Z,39
2018-12-15T01:06:46.168Z,39
2018-12-15T01:06:58.507Z,44
2018-12-15T01:07:10.888Z,44
2018-12-15T01:07:23.238Z,44
2018-12-15T01:07:36.442Z,44
2018-12-15T01:07:48.784Z,78
2018-12-15T01:08:01.123Z,80
2018-12-15T01:08:13.473Z,43
2018-12-15T01:08:25.844Z,51
2018-12-15T01:08:38.188Z,52
2018-12-15T01:08:50.532Z,52
2018-12-15T01:09:02.886Z,54
2018-12-15T01:09:15.417Z,61
2018-12-15T01:09:27.777Z,74
2018-12-15T01:09:40.112Z,74
2018-12-15T01:09:52.440Z,74
2018-12-15T01:10:04.810Z,84
2018-12-15T01:10:17.218Z,38
2018-12-15T01:10:29.563Z,13
2018-12-15T01:10:41.917Z,26
2018-12-15T01:10:54.265Z,26
2018-12-15T01:11:06.687Z,26
2018-12-15T01:11:19.048Z,42
2018-12-15T01:11:31.399Z,61
2018-12-15T01:11:43.751Z,61
2018-12-15T01:11:56.101Z,61
2018-12-15T01:12:08.653Z,61
2018-12-15T01:12:20.997Z,58
2018-12-15T01:12:33.421Z,51
2018-12-15T01:12:45.774Z,51
2018-12-15T01:12:58.135Z,51
2018-12-15T01:13:10.505Z,51
2018-12-15T01:13:22.884Z,51
2018-12-15T01:13:35.229Z,51
2018-12-15T01:13:47.569Z,51
2018-12-15T01:13:59.920Z,51
2018-12-15T01:14:12.317Z,51
2018-12-15T01:14:24.660Z,51
2018-12-15T01:14:37.008Z,50
2018-12-15T01:14:49.346Z,66
2018-12-15T01:15:01.701Z,66
2018-12-15T01:15:14.032Z,66
2018-12-15T01:15:26.361Z,40
2018-12-15T01:15:38.724Z,82
2018-12-15T01:15:51.142Z,81
2018-12-15T01:16:03.499Z,61
2018-12-15T01:16:15.860Z,44
2018-12-15T01:16:28.234Z,32
2018-12-15T01:16:40.711Z,45
2018-12-15T01:16:53.074Z,66
2018-12-15T01:17:05.494Z,74
2018-12-15T01:17:23.913Z,74
2018-12-15T01:17:36.279Z,75
2018-12-15T01:17:48.614Z,75
2018-12-15T01:18:00.963Z,74
2018-12-15T01:18:13.324Z,40
2018-12-15T01:18:25.666Z,38
2018-12-15T01:18:38.221Z,38
2018-12-15T01:18:50.633Z,47
2018-12-15T01:19:02.986Z,47
2018-12-15T01:19:15.346Z,58
2018-12-15T01:19:27.681Z,62
2018-12-15T01:19:40.032Z,71
2018-12-15T01:19:52.378Z,108
2018-12-15T01:20:04.808Z,74
2018-12-15T01:20:17.147Z,75
2018-12-15T01:20:29.489Z,63
2018-12-15T01:20:41.836Z,64
2018-12-15T01:20:54.211Z,64
2018-12-15T01:21:06.563Z,64
2018-12-15T01:21:18.914Z,64
2018-12-15T01:21:31.249Z,64
2018-12-15T01:21:43.611Z,64
2018-12-15T01:21:55.948Z,64
2018-12-15T01:22:08.331Z,63
2018-12-15T01:22:20.679Z,63
2018-12-15T01:22:33.024Z,64
2018-12-15T01:22:45.377Z,63
2018-12-15T01:22:57.721Z,71
2018-12-15T01:23:10.127Z,45
2018-12-15T01:23:22.503Z,69
2018-12-15T01:23:34.845Z,58
2018-12-15T01:23:47.191Z,34
2018-12-15T01:23:59.536Z,29
2018-12-15T01:24:12.094Z,29
2018-12-15T01:24:24.490Z,78
2018-12-15T01:24:36.964Z,96
2018-12-15T01:24:49.310Z,105
2018-12-15T01:25:01.671Z,90
2018-12-15T01:25:14.269Z,99
2018-12-15T01:25:26.765Z,110
2018-12-15T01:25:39.117Z,109
2018-12-15T01:25:51.448Z,110
2018-12-15T01:26:03.806Z,109
2018-12-15T01:26:16.135Z,69
2018-12-15T01:26:28.615Z,69
2018-12-15T01:26:40.976Z,68
2018-12-15T01:26:53.317Z,68
2018-12-15T01:27:05.740Z,68
2018-12-15T01:27:18.088Z,69
2018-12-15T01:27:30.419Z,75
2018-12-15T01:27:42.760Z,75
2018-12-15T01:27:55.121Z,75
2018-12-15T01:28:07.479Z,75
2018-12-15T01:28:19.819Z,75
2018-12-15T01:28:32.148Z,37
2018-12-15T01:28:44.647Z,17
2018-12-15T01:28:56.996Z,101
2018-12-15T01:29:09.327Z,62
2018-12-15T01:29:21.689Z,34
2018-12-15T01:29:34.036Z,30
2018-12-15T01:29:46.455Z,51
2018-12-15T01:29:58.781Z,38
2018-12-15T01:30:11.127Z,37
2018-12-15T01:30:23.483Z,65
2018-12-15T01:30:35.840Z,71
2018-12-15T01:30:48.181Z,72
2018-12-15T01:31:00.535Z,52
2018-12-15T01:31:12.884Z,39
2018-12-15T01:31:25.246Z,100
2018-12-15T01:31:37.642Z,106
2018-12-15T01:31:50.193Z,28
2018-12-15T01:32:02.684Z,48
2018-12-15T01:32:15.195Z,70
2018-12-15T01:32:27.673Z,57
2018-12-15T01:32:40.008Z,73
2018-12-15T01:32:52.379Z,88
2018-12-15T01:33:04.736Z,88
2018-12-15T01:33:17.082Z,88
2018-12-15T01:33:29.613Z,88
2018-12-15T01:33:41.985Z,88
2018-12-15T01:33:54.333Z,59
2018-12-15T01:34:07.334Z,59
2018-12-15T01:34:19.696Z,59
2018-12-15T01:34:32.047Z,59
2018-12-15T01:34:44.445Z,59
2018-12-15T01:34:56.973Z,59
2018-12-15T01:35:09.323Z,59
2018-12-15T01:35:21.664Z,59
2018-12-15T01:35:33.997Z,59
2018-12-15T01:35:46.402Z,38
2018-12-15T01:35:58.794Z,41
2018-12-15T01:36:11.168Z,41
2018-12-15T01:36:23.549Z,24
2018-12-15T01:36:35.905Z,65
2018-12-15T01:36:48.242Z,66
2018-12-15T01:37:00.588Z,88
2018-12-15T01:37:12.977Z,80
2018-12-15T01:37:25.310Z,80
2018-12-15T01:37:37.814Z,80
2018-12-15T01:37:50.251Z,63
2018-12-15T01:38:02.782Z,49
2018-12-15T01:38:15.245Z,28
2018-12-15T01:38:27.600Z,9
2018-12-15T01:38:39.945Z,48
2018-12-15T01:38:52.289Z,49
2018-12-15T01:39:04.627Z,32
2018-12-15T01:39:17.043Z,50
2018-12-15T01:39:31.123Z,80
2018-12-15T01:39:43.460Z,55
2018-12-15T01:39:56.015Z,54
2018-12-15T01:40:08.496Z,52
2018-12-15T01:40:20.876Z,57
2018-12-15T01:40:33.216Z,59
2018-12-15T01:40:45.560Z,32
2018-12-15T01:40:58.038Z,32
2018-12-15T01:41:10.475Z,62
2018-12-15T01:41:22.832Z,76
2018-12-15T01:41:35.174Z,65
2018-12-15T01:41:47.503Z,56
2018-12-15T01:41:59.860Z,48
2018-12-15T01:42:12.224Z,80
2018-12-15T01:42:24.559Z,70
2018-12-15T01:42:36.898Z,70
2018-12-15T01:42:49.246Z,71
2018-12-15T01:43:01.590Z,80
2018-12-15T01:43:13.941Z,49
2018-12-15T01:43:26.282Z,66
2018-12-15T01:43:38.631Z,65
2018-12-15T01:43:50.982Z,65
2018-12-15T01:44:03.342Z,65
2018-12-15T01:44:15.751Z,55
2018-12-15T01:44:28.140Z,53
2018-12-15T01:44:40.487Z,53
2018-12-15T01:44:52.836Z,66
2018-12-15T01:45:05.209Z,93
2018-12-15T01:45:17.545Z,87
2018-12-15T01:45:29.902Z,87
2018-12-15T01:45:42.350Z,92
2018-12-15T01:45:54.700Z,109
2018-12-15T01:46:08.233Z,127
2018-12-15T01:46:20.964Z,127
2018-12-15T01:46:33.326Z,127
2018-12-15T01:46:45.776Z,127
2018-12-15T01:46:58.129Z,127
2018-12-15T01:47:10.496Z,127
2018-12-15T01:47:29.331Z,127
2018-12-15T01:47:41.676Z,127
2018-12-15T01:47:54.011Z,127
2018-12-15T01:48:06.364Z,127
2018-12-15T01:48:18.698Z,127
2018-12-15T01:48:31.036Z,127
2018-12-15T01:48:43.376Z,127
2018-12-15T01:48:55.738Z,127
2018-12-15T01:49:08.112Z,127
2018-12-15T01:49:20.446Z,127
2018-12-15T01:49:32.899Z,127
2018-12-15T01:49:45.239Z,127
2018-12-15T01:49:57.649Z,127
2018-12-15T01:50:10.102Z,105
2018-12-15T01:50:22.441Z,104
2018-12-15T01:50:34.787Z,99
2018-12-15T01:50:47.128Z,99
2018-12-15T01:50:59.532Z,99
2018-12-15T01:51:11.911Z,99
2018-12-15T01:51:24.255Z,99
2018-12-15T01:51:36.617Z,47
2018-12-15T01:51:49.006Z,32
2018-12-15T01:52:01.361Z,55
2018-12-15T01:52:13.960Z,53
2018-12-15T01:52:26.297Z,64
2018-12-15T01:52:38.654Z,51
2018-12-15T01:52:50.997Z,49
2018-12-15T01:53:03.368Z,51
2018-12-15T01:53:15.700Z,96
2018-12-15T01:53:28.042Z,103
2018-12-15T01:53:40.386Z,100
2018-12-15T01:53:52.726Z,53
2018-12-15T01:54:05.068Z,46
2018-12-15T01:54:17.415Z,39
2018-12-15T01:54:29.780Z,81
2018-12-15T01:54:42.133Z,62
2018-12-15T01:54:54.467Z,62
2018-12-15T01:55:07.030Z,76
2018-12-15T01:55:19.402Z,76
2018-12-15T01:55:31.745Z,76
2018-12-15T01:55:44.099Z,76
2018-12-15T01:55:56.529Z,76
2018-12-15T01:56:08.870Z,76
2018-12-15T01:56:21.214Z,76
2018-12-15T01:56:33.574Z,44
2018-12-15T01:56:46.082Z,44
2018-12-15T01:56:58.419Z,100
2018-12-15T01:57:10.790Z,100
2018-12-15T01:57:23.221Z,100
2018-12-15T01:57:35.556Z,52
2018-12-15T01:57:47.909Z,74
2018-12-15T01:58:00.314Z,74
2018-12-15T01:58:12.668Z,74
2018-12-15T01:58:25.755Z,52
2018-12-15T01:58:38.149Z,31
2018-12-15T01:58:50.492Z,61
2018-12-15T01:59:03.291Z,57
2018-12-15T01:59:15.673Z,57
2018-12-15T01:59:28.014Z,57
2018-12-15T01:59:40.360Z,57
2018-12-15T01:59:52.771Z,57
2018-12-15T02:00:05.170Z,57
2018-12-15T02:00:17.537Z,57
2018-12-15T02:00:29.913Z,57
2018-12-15T02:00:42.288Z,142
2018-12-15T02:00:54.629Z,142
2018-12-15T02:01:06.987Z,142
2018-12-15T02:01:19.327Z,123
2018-12-15T02:01:31.666Z,123
2018-12-15T02:01:44.029Z,123
2018-12-15T02:01:56.392Z,123
2018-12-15T02:02:08.743Z,123
2018-12-15T02:02:21.096Z,41
2018-12-15T02:02:33.764Z,41
2018-12-15T02:02:46.113Z,43
2018-12-15T02:02:58.462Z,43
2018-12-15T02:03:10.821Z,43
2018-12-15T02:03:23.180Z,43
2018-12-15T02:03:35.526Z,43
2018-12-15T02:03:47.882Z,43
2018-12-15T02:04:00.276Z,43
2018-12-15T02:04:12.633Z,43
2018-12-15T02:04:24.990Z,43
2018-12-15T02:04:37.355Z,43
2018-12-15T02:04:49.732Z,43
2018-12-15T02:05:02.075Z,43
2018-12-15T02:05:14.496Z,43
2018-12-15T02:05:26.836Z,43
2018-12-15T02:05:39.361Z,43
2018-12-15T02:05:51.750Z,38
2018-12-15T02:06:04.170Z,38
2018-12-15T02:06:16.613Z,38
2018-12-15T02:06:28.966Z,38
2018-12-15T02:06:41.294Z,38
2018-12-15T02:06:53.680Z,36
2018-12-15T02:07:06.006Z,44
2018-12-15T02:07:18.371Z,68
2018-12-15T02:07:30.802Z,71
2018-12-15T02:07:43.319Z,74
2018-12-15T02:07:55.659Z,74
2018-12-15T02:08:08.001Z,85
2018-12-15T02:08:20.366Z,85
2018-12-15T02:08:32.699Z,59
2018-12-15T02:08:45.057Z,59
2018-12-15T02:08:57.388Z,59
2018-12-15T02:09:09.730Z,51
2018-12-15T02:09:22.074Z,51
2018-12-15T02:09:34.412Z,51
2018-12-15T02:09:46.763Z,36
2018-12-15T02:09:59.497Z,34
2018-12-15T02:10:11.848Z,34
2018-12-15T02:10:24.189Z,41
2018-12-15T02:10:36.540Z,60
2018-12-15T02:10:48.886Z,64
2018-12-15T02:11:01.229Z,130
2018-12-15T02:11:13.583Z,101
2018-12-15T02:11:25.949Z,101
2018-12-15T02:11:38.320Z,9
2018-12-15T02:11:52.149Z,59
2018-12-15T02:12:04.505Z,65
2018-12-15T02:12:16.859Z,80
2018-12-15T02:12:29.198Z,71
2018-12-15T02:12:41.551Z,68
2018-12-15T02:12:53.893Z,73
2018-12-15T02:13:06.259Z,73
2018-12-15T02:13:18.595Z,53
2018-12-15T02:13:30.953Z,32
2018-12-15T02:13:43.320Z,55
2018-12-15T02:13:55.667Z,84
2018-12-15T02:14:08.017Z,83
2018-12-15T02:14:20.359Z,83
2018-12-15T02:14:32.705Z,83
2018-12-15T02:14:45.053Z,83
2018-12-15T02:14:57.410Z,83
2018-12-15T02:15:09.789Z,83
2018-12-15T02:15:22.132Z,83
2018-12-15T02:15:34.469Z,84
2018-12-15T02:15:46.937Z,83
2018-12-15T02:15:59.272Z,84
2018-12-15T02:16:11.664Z,84
2018-12-15T02:16:24.006Z,101
2018-12-15T02:16:36.498Z,151
2018-12-15T02:16:48.865Z,135
2018-12-15T02:17:01.189Z,126
2018-12-15T02:17:13.559Z,126
2018-12-15T02:17:25.907Z,126
2018-12-15T02:17:44.810Z,126
2018-12-15T02:17:57.164Z,59
2018-12-15T02:18:09.493Z,46
2018-12-15T02:18:21.825Z,34
2018-12-15T02:18:34.162Z,76
2018-12-15T02:18:46.576Z,68
2018-12-15T02:18:58.915Z,66
2018-12-15T02:19:11.438Z,41
2018-12-15T02:19:23.821Z,44
2018-12-15T02:19:36.182Z,44
2018-12-15T02:19:48.544Z,44
2018-12-15T02:20:00.894Z,44
2018-12-15T02:20:13.224Z,44
2018-12-15T02:20:25.574Z,44
2018-12-15T02:20:37.909Z,44
2018-12-15T02:20:50.282Z,44
2018-12-15T02:21:02.681Z,44
2018-12-15T02:21:15.064Z,44
2018-12-15T02:21:27.401Z,42
2018-12-15T02:21:39.761Z,44
2018-12-15T02:21:52.261Z,44
2018-12-15T02:22:04.594Z,44
2018-12-15T02:22:16.912Z,75
2018-12-15T02:22:29.268Z,61
2018-12-15T02:22:41.633Z,61
2018-12-15T02:22:53.981Z,61
2018-12-15T02:23:06.321Z,61
2018-12-15T02:23:18.667Z,63
2018-12-15T02:23:31.026Z,63
2018-12-15T02:23:43.369Z,64
2018-12-15T02:23:55.732Z,48
2018-12-15T02:24:08.075Z,51
2018-12-15T02:24:20.459Z,59
2018-12-15T02:24:32.782Z,82
2018-12-15T02:24:45.199Z,82
2018-12-15T02:24:57.590Z,78
2018-12-15T02:25:10.365Z,90
2018-12-15T02:25:22.699Z,90
2018-12-15T02:25:35.115Z,14
2018-12-15T02:25:47.443Z,48
2018-12-15T02:25:59.784Z,101
2018-12-15T02:26:12.136Z,71
2018-12-15T02:26:24.663Z,73
2018-12-15T02:26:37.182Z,73
2018-12-15T02:26:49.534Z,73
2018-12-15T02:27:01.904Z,73
2018-12-15T02:27:14.231Z,73
2018-12-15T02:27:26.590Z,45
2018-12-15T02:27:38.916Z,51
2018-12-15T02:27:51.254Z,46
2018-12-15T02:28:03.597Z,53
2018-12-15T02:28:15.944Z,73
2018-12-15T02:28:28.288Z,55
2018-12-15T02:28:40.631Z,76
2018-12-15T02:28:53.105Z,14
2018-12-15T02:29:05.435Z,83
2018-12-15T02:29:17.787Z,94
2018-12-15T02:29:30.135Z,99
2018-12-15T02:29:42.483Z,70
2018-12-15T02:29:54.851Z,75
2018-12-15T02:30:07.233Z,38
2018-12-15T02:30:19.619Z,61
2018-12-15T02:30:32.029Z,69
2018-12-15T02:30:44.401Z,92
2018-12-15T02:30:57.868Z,91
2018-12-15T02:31:10.228Z,94
2018-12-15T02:31:22.607Z,68
2018-12-15T02:31:34.970Z,63
2018-12-15T02:31:47.341Z,75
2018-12-15T02:31:59.727Z,85
2018-12-15T02:32:12.156Z,45
2018-12-15T02:32:24.732Z,74
2018-12-15T02:32:37.128Z,57
2018-12-15T02:32:49.491Z,55
2018-12-15T02:33:01.861Z,53
2018-12-15T02:33:14.236Z,80
2018-12-15T02:33:26.602Z,81
2018-12-15T02:33:39.068Z,63
2018-12-15T02:33:51.427Z,67
2018-12-15T02:34:03.775Z,49
2018-12-15T02:34:16.135Z,62
2018-12-15T02:34:28.519Z,57
2018-12-15T02:34:40.878Z,53
2018-12-15T02:34:53.529Z,53
2018-12-15T02:35:05.918Z,82
2018-12-15T02:35:18.282Z,93
2018-12-15T02:35:30.751Z,54
2018-12-15T02:35:43.128Z,90
2018-12-15T02:35:55.483Z,90
2018-12-15T02:36:07.896Z,89
2018-12-15T02:36:20.296Z,89
2018-12-15T02:36:32.731Z,44
2018-12-15T02:36:45.256Z,75
2018-12-15T02:36:57.610Z,68
2018-12-15T02:37:09.978Z,67
2018-12-15T02:37:22.365Z,69
2018-12-15T02:37:34.710Z,71
2018-12-15T02:37:47.156Z,84
2018-12-15T02:37:59.613Z,76
2018-12-15T02:38:12.161Z,80
2018-12-15T02:38:24.646Z,58
2018-12-15T02:38:37.000Z,58
2018-12-15T02:38:49.380Z,58
2018-12-15T02:39:01.756Z,58
2018-12-15T02:39:14.251Z,58
2018-12-15T02:39:26.782Z,58
2018-12-15T02:39:39.119Z,47
2018-12-15T02:39:51.566Z,71
2018-12-15T02:40:03.962Z,78
2018-12-15T02:40:16.458Z,76
2018-12-15T02:40:28.814Z,52
2018-12-15T02:40:41.194Z,52
2018-12-15T02:40:53.602Z,52
2018-12-15T02:41:06.081Z,52
2018-12-15T02:41:19.477Z,52
2018-12-15T02:41:31.819Z,52
2018-12-15T02:41:51.705Z,65
2018-12-15T02:42:04.064Z,78
2018-12-15T02:42:16.414Z,53
2018-12-15T02:42:28.775Z,38
2018-12-15T02:42:41.114Z,47
2018-12-15T02:42:53.487Z,48
2018-12-15T02:43:05.856Z,42
2018-12-15T02:43:18.218Z,94
2018-12-15T02:43:30.564Z,96
2018-12-15T02:43:42.926Z,26
2018-12-15T02:43:55.318Z,32
2018-12-15T02:44:07.674Z,66
2018-12-15T02:44:20.014Z,46
2018-12-15T02:44:32.427Z,88
2018-12-15T02:44:44.821Z,61
2018-12-15T02:44:57.190Z,62
2018-12-15T02:45:09.572Z,62
2018-12-15T02:45:22.065Z,59
2018-12-15T02:45:34.451Z,55
2018-12-15T02:45:46.916Z,74
2018-12-15T02:45:59.257Z,62
2018-12-15T02:46:11.672Z,79
2018-12-15T02:46:24.128Z,95
2018-12-15T02:46:36.528Z,78
2018-12-15T02:46:49.015Z,60
2018-12-15T02:47:01.368Z,46
2018-12-15T02:47:13.719Z,54
2018-12-15T02:47:26.070Z,53
2018-12-15T02:47:45.980Z,51
2018-12-15T02:47:58.367Z,30
2018-12-15T02:48:10.719Z,22
2018-12-15T02:48:23.107Z,19
2018-12-15T02:48:35.478Z,32
2018-12-15T02:48:47.850Z,53
2018-12-15T02:49:00.205Z,57
2018-12-15T02:49:12.582Z,63
2018-12-15T02:49:24.946Z,79
2018-12-15T02:49:37.320Z,90
2018-12-15T02:49:49.694Z,90
2018-12-15T02:50:02.196Z,90
2018-12-15T02:50:16.440Z,49
2018-12-15T02:50:28.779Z,53
2018-12-15T02:50:41.161Z,67
2018-12-15T02:50:53.529Z,67
2018-12-15T02:51:05.918Z,67
2018-12-15T02:51:18.291Z,18
2018-12-15T02:51:30.652Z,25
2018-12-15T02:51:43.042Z,33
2018-12-15T02:51:55.425Z,33
2018-12-15T02:52:07.916Z,33
2018-12-15T02:52:20.292Z,55
2018-12-15T02:52:32.656Z,60
2018-12-15T02:52:45.028Z,60
2018-12-15T02:52:57.422Z,59
2018-12-15T02:53:09.769Z,59
2018-12-15T02:53:22.109Z,59
2018-12-15T02:53:34.566Z,59
2018-12-15T02:53:46.969Z,59
2018-12-15T02:53:59.321Z,81
2018-12-15T02:54:11.675Z,40
2018-12-15T02:54:24.030Z,64
2018-12-15T02:54:36.412Z,67
2018-12-15T02:54:48.798Z,95
2018-12-15T02:55:01.339Z,53
2018-12-15T02:55:13.699Z,78
2018-12-15T02:55:26.066Z,42
2018-12-15T02:55:38.462Z,56
2018-12-15T02:55:50.832Z,56
2018-12-15T02:56:04.416Z,20
2018-12-15T02:56:16.798Z,20
2018-12-15T02:56:29.174Z,20
2018-12-15T02:56:41.688Z,20
2018-12-15T02:56:54.084Z,34